createdAt,value
2018-07-13T00:00:06.832Z,19.20
2018-07-13T00:02:35.681Z,19.30
2018-07-13T00:05:04.796Z,19.20
2018-07-13T00:07:33.665Z,19.30
2018-07-13T00:10:02.565Z,19.20
2018-07-13T00:12:31.448Z,19.20
2018-07-13T00:15:08.708Z,19.20
2018-07-13T00:20:06.756Z,19.10
2018-07-13T00:22:35.687Z,19.00
2018-07-13T00:25:04.900Z,19.00
2018-07-13T00:27:33.751Z,19.00
2018-07-13T00:30:02.639Z,19.00
2018-07-13T00:32:31.485Z,19.00
2018-07-13T00:35:00.383Z,19.00
2018-07-13T00:37:29.218Z,19.00
2018-07-13T00:39:58.076Z,18.90
2018-07-13T00:42:26.966Z,18.80
2018-07-13T00:44:55.843Z,18.70
2018-07-13T00:47:24.697Z,18.70
2018-07-13T00:49:53.516Z,18.70
2018-07-13T00:52:22.367Z,18.80
2018-07-13T00:54:51.219Z,18.80
2018-07-13T00:57:20.066Z,18.80
2018-07-13T00:59:55.655Z,18.80
2018-07-13T01:02:24.537Z,18.80
2018-07-13T01:04:53.399Z,18.90
2018-07-13T01:07:22.224Z,18.80
2018-07-13T01:09:51.092Z,18.80
2018-07-13T01:12:19.983Z,18.80
2018-07-13T01:14:48.851Z,18.80
2018-07-13T01:17:22.065Z,18.70
2018-07-13T01:19:50.963Z,18.70
2018-07-13T01:22:19.869Z,18.70
2018-07-13T01:24:48.721Z,18.70
2018-07-13T01:29:46.299Z,18.70
2018-07-13T01:32:15.171Z,18.70
2018-07-13T01:34:44.056Z,18.40
2018-07-13T01:37:12.976Z,18.40
2018-07-13T01:39:41.844Z,18.50
2018-07-13T01:44:39.453Z,18.50
2018-07-13T01:47:08.383Z,18.50
2018-07-13T01:49:37.249Z,18.50
2018-07-13T01:52:06.107Z,18.60
2018-07-13T01:57:03.677Z,18.50
2018-07-13T01:59:32.588Z,18.50
2018-07-13T02:04:30.187Z,18.50
2018-07-13T02:06:59.064Z,18.50
2018-07-13T02:09:27.906Z,18.50
2018-07-13T02:11:56.877Z,18.50
2018-07-13T02:14:25.716Z,18.60
2018-07-13T02:16:54.595Z,18.60
2018-07-13T02:19:23.440Z,18.60
2018-07-13T02:21:52.308Z,18.60
2018-07-13T02:24:21.189Z,18.60
2018-07-13T02:26:50.054Z,18.60
2018-07-13T02:29:21.815Z,18.60
2018-07-13T02:31:50.713Z,18.60
2018-07-13T02:34:19.634Z,18.60
2018-07-13T02:36:48.520Z,18.60
2018-07-13T02:39:17.377Z,18.60
2018-07-13T02:41:46.296Z,18.50
2018-07-13T02:44:15.131Z,18.50
2018-07-13T02:46:44.004Z,18.50
2018-07-13T02:49:12.856Z,18.50
2018-07-13T02:51:41.723Z,18.50
2018-07-13T02:56:39.371Z,18.50
2018-07-13T02:59:08.246Z,18.50
2018-07-13T03:01:37.144Z,18.50
2018-07-13T03:04:06.195Z,18.50
2018-07-13T03:06:35.056Z,18.60
2018-07-13T03:11:35.455Z,18.40
2018-07-13T03:14:04.862Z,18.40
2018-07-13T03:16:33.947Z,18.40
2018-07-13T03:19:02.814Z,18.40
2018-07-13T03:21:31.700Z,18.40
2018-07-13T03:24:00.567Z,18.40
2018-07-13T03:28:58.421Z,18.40
2018-07-13T03:31:27.419Z,18.40
2018-07-13T03:33:56.270Z,18.40
2018-07-13T03:36:25.247Z,18.40
2018-07-13T03:38:54.100Z,18.40
2018-07-13T03:41:23.019Z,18.30
2018-07-13T03:43:52.121Z,18.40
2018-07-13T03:51:18.516Z,18.30
2018-07-13T03:53:47.436Z,18.30
2018-07-13T03:56:16.320Z,18.30
2018-07-13T03:58:45.184Z,18.30
2018-07-13T04:01:14.111Z,18.20
2018-07-13T04:03:42.988Z,18.30
2018-07-13T04:06:13.014Z,18.20
2018-07-13T04:08:42.180Z,18.30
2018-07-13T04:11:11.071Z,18.30
2018-07-13T04:13:39.954Z,18.30
2018-07-13T04:16:08.820Z,18.20
2018-07-13T04:18:37.719Z,18.20
2018-07-13T04:21:06.791Z,18.20
2018-07-13T04:23:35.724Z,18.20
2018-07-13T04:28:33.805Z,18.20
2018-07-13T04:31:03.291Z,18.30
2018-07-13T04:36:00.943Z,18.30
2018-07-13T04:38:29.809Z,18.30
2018-07-13T04:40:59.681Z,18.30
2018-07-13T04:43:28.583Z,18.20
2018-07-13T04:45:57.607Z,18.20
2018-07-13T04:48:26.631Z,18.20
2018-07-13T04:53:25.418Z,18.20
2018-07-13T04:55:56.275Z,18.20
2018-07-13T04:58:25.372Z,18.20
2018-07-13T05:05:52.738Z,18.30
2018-07-13T05:08:21.748Z,18.30
2018-07-13T05:10:50.861Z,18.30
2018-07-13T05:13:19.760Z,18.40
2018-07-13T05:18:17.407Z,18.40
2018-07-13T05:20:46.387Z,18.50
2018-07-13T05:23:15.448Z,18.50
2018-07-13T05:25:44.419Z,18.60
2018-07-13T05:28:13.435Z,18.60
2018-07-13T05:30:42.926Z,18.70
2018-07-13T05:33:11.880Z,18.60
2018-07-13T05:35:40.911Z,18.60
2018-07-13T05:38:09.935Z,18.70
2018-07-13T05:40:39.376Z,18.70
2018-07-13T05:43:08.411Z,18.70
2018-07-13T05:45:37.404Z,18.80
2018-07-13T05:48:06.424Z,18.90
2018-07-13T05:50:35.451Z,18.90
2018-07-13T05:53:05.159Z,19.00
2018-07-13T05:55:34.652Z,19.00
2018-07-13T05:58:04.267Z,19.00
2018-07-13T06:00:33.297Z,19.00
2018-07-13T06:03:02.579Z,19.10
2018-07-13T06:05:32.523Z,19.10
2018-07-13T06:08:01.744Z,19.20
2018-07-13T06:10:30.964Z,19.20
2018-07-13T06:13:00.462Z,19.20
2018-07-13T06:15:29.468Z,19.30
2018-07-13T06:17:58.589Z,19.30
2018-07-13T06:20:27.540Z,19.30
2018-07-13T06:22:56.457Z,19.30
2018-07-13T06:25:25.806Z,19.30
2018-07-13T06:27:54.728Z,19.40
2018-07-13T06:30:23.684Z,19.50
2018-07-13T06:32:52.607Z,19.50
2018-07-13T06:35:21.933Z,19.50
2018-07-13T06:37:51.239Z,19.60
2018-07-13T06:40:20.204Z,19.60
2018-07-13T06:42:49.419Z,19.60
2018-07-13T06:47:47.239Z,19.70
2018-07-13T06:50:16.171Z,19.70
2018-07-13T06:52:45.256Z,19.80
2018-07-13T06:55:16.145Z,19.80
2018-07-13T06:58:02.089Z,19.90
2018-07-13T07:01:03.070Z,19.90
2018-07-13T07:03:34.748Z,20.00
2018-07-13T07:06:11.499Z,20.10
2018-07-13T07:08:47.910Z,20.10
2018-07-13T07:11:18.409Z,20.20
2018-07-13T07:13:47.832Z,20.30
2018-07-13T07:16:16.813Z,20.40
2018-07-13T07:18:45.780Z,20.50
2018-07-13T07:21:14.673Z,20.50
2018-07-13T07:23:50.438Z,20.70
2018-07-13T07:31:17.020Z,20.90
2018-07-13T07:33:46.264Z,21.00
2018-07-13T07:36:15.368Z,21.00
2018-07-13T07:38:44.262Z,21.10
2018-07-13T07:41:13.293Z,21.10
2018-07-13T07:43:42.596Z,21.10
2018-07-13T07:46:11.877Z,21.20
2018-07-13T07:48:40.828Z,21.20
2018-07-13T07:51:10.326Z,21.20
2018-07-13T07:53:39.275Z,21.20
2018-07-13T07:56:08.211Z,21.20
2018-07-13T07:58:37.109Z,21.30
2018-07-13T08:01:06.055Z,21.30
2018-07-13T08:06:04.607Z,21.40
2018-07-13T08:11:02.199Z,21.50
2018-07-13T08:13:31.133Z,21.50
2018-07-13T08:16:00.001Z,21.50
2018-07-13T08:20:57.878Z,21.60
2018-07-13T08:25:56.152Z,21.70
2018-07-13T08:28:25.160Z,21.80
2018-07-13T08:30:57.529Z,21.90
2018-07-13T08:35:55.300Z,21.90
2018-07-13T08:38:24.224Z,21.90
2018-07-13T08:40:53.207Z,21.90
2018-07-13T08:43:22.190Z,22.00
2018-07-13T08:45:51.404Z,22.00
2018-07-13T08:48:20.288Z,22.10
2018-07-13T08:50:49.764Z,22.20
2018-07-13T08:53:18.763Z,22.20
2018-07-13T08:55:47.728Z,22.30
2018-07-13T08:58:17.036Z,22.40
2018-07-13T09:00:46.016Z,22.40
2018-07-13T09:03:14.941Z,22.40
2018-07-13T09:05:43.864Z,22.50
2018-07-13T09:08:12.776Z,22.50
2018-07-13T09:10:41.834Z,22.60
2018-07-13T09:13:10.797Z,22.60
2018-07-13T09:15:39.780Z,22.70
2018-07-13T09:18:08.688Z,22.80
2018-07-13T09:20:37.664Z,22.90
2018-07-13T09:23:06.576Z,23.10
2018-07-13T09:25:35.492Z,23.20
2018-07-13T09:30:33.290Z,23.40
2018-07-13T09:33:02.231Z,23.40
2018-07-13T09:35:31.168Z,23.40
2018-07-13T09:38:00.077Z,23.50
2018-07-13T09:40:29.038Z,23.70
2018-07-13T09:42:59.540Z,23.80
2018-07-13T09:45:28.476Z,23.70
2018-07-13T09:47:57.353Z,23.70
2018-07-13T09:50:26.252Z,23.60
2018-07-13T09:52:55.223Z,23.60
2018-07-13T09:55:24.165Z,23.60
2018-07-13T09:57:53.020Z,23.50
2018-07-13T10:02:50.971Z,23.60
2018-07-13T10:05:19.932Z,23.70
2018-07-13T10:07:48.953Z,23.80
2018-07-13T10:10:17.948Z,24.00
2018-07-13T10:12:46.936Z,24.30
2018-07-13T10:15:15.935Z,24.40
2018-07-13T10:17:44.860Z,24.40
2018-07-13T10:20:13.820Z,24.50
2018-07-13T10:22:42.836Z,24.50
2018-07-13T10:25:12.233Z,24.50
2018-07-13T10:27:41.275Z,24.50
2018-07-13T10:30:12.908Z,24.50
2018-07-13T10:32:43.624Z,24.60
2018-07-13T10:35:12.777Z,24.60
2018-07-13T10:37:42.310Z,24.40
2018-07-13T10:40:11.779Z,24.40
2018-07-13T10:42:40.740Z,24.50
2018-07-13T10:45:09.718Z,24.60
2018-07-13T10:47:38.741Z,24.80
2018-07-13T10:50:07.576Z,24.90
2018-07-13T10:52:36.520Z,24.90
2018-07-13T10:55:05.408Z,24.80
2018-07-13T10:57:34.322Z,24.80
2018-07-13T11:00:03.280Z,24.70
2018-07-13T11:02:32.171Z,24.80
2018-07-13T11:05:01.036Z,25.10
2018-07-13T11:07:29.888Z,25.30
2018-07-13T11:09:58.753Z,25.40
2018-07-13T11:12:27.683Z,25.60
2018-07-13T11:14:56.636Z,25.70
2018-07-13T11:17:25.547Z,25.80
2018-07-13T11:19:54.437Z,25.70
2018-07-13T11:22:23.357Z,25.80
2018-07-13T11:24:52.213Z,25.80
2018-07-13T11:27:22.279Z,25.80
2018-07-13T11:29:51.639Z,25.90
2018-07-13T11:32:20.579Z,26.00
2018-07-13T11:34:49.460Z,26.20
2018-07-13T11:37:18.499Z,26.40
2018-07-13T11:39:47.547Z,26.30
2018-07-13T11:42:16.479Z,26.40
2018-07-13T11:44:45.382Z,26.50
2018-07-13T11:47:14.281Z,26.50
2018-07-13T11:49:43.164Z,26.50
2018-07-13T11:52:12.631Z,26.50
2018-07-13T11:54:41.523Z,26.40
2018-07-13T11:57:10.619Z,26.40
2018-07-13T12:04:37.098Z,26.50
2018-07-13T12:07:06.264Z,26.50
2018-07-13T12:09:35.484Z,26.60
2018-07-13T12:12:04.452Z,26.60
2018-07-13T12:14:33.328Z,26.60
2018-07-13T12:17:02.379Z,26.50
2018-07-13T12:19:31.665Z,26.50
2018-07-13T12:22:00.633Z,26.40
2018-07-13T12:24:29.547Z,26.30
2018-07-13T12:26:58.511Z,26.20
2018-07-13T12:29:27.811Z,26.20
2018-07-13T12:31:56.949Z,26.20
2018-07-13T12:34:32.716Z,26.40
2018-07-13T12:37:01.609Z,26.80
2018-07-13T12:39:30.471Z,27.30
2018-07-13T12:41:59.323Z,27.70
2018-07-13T12:44:28.170Z,28.00
2018-07-13T12:49:25.783Z,28.30
2018-07-13T12:51:54.724Z,28.40
2018-07-13T12:56:52.384Z,28.80
2018-07-13T12:59:21.583Z,29.00
2018-07-13T13:01:51.328Z,29.20
2018-07-13T13:04:20.616Z,29.30
2018-07-13T13:06:49.928Z,29.60
2018-07-13T13:09:18.867Z,29.50
2018-07-13T13:11:47.767Z,29.60
2018-07-13T13:14:17.387Z,29.90
2018-07-13T13:21:44.257Z,30.60
2018-07-13T13:26:41.997Z,30.90
2018-07-13T13:29:10.940Z,31.00
2018-07-13T13:31:39.863Z,31.00
2018-07-13T13:34:08.851Z,31.00
2018-07-13T13:36:37.743Z,30.90
2018-07-13T13:39:06.912Z,30.50
2018-07-13T13:41:35.797Z,30.20
2018-07-13T13:44:04.675Z,30.00
2018-07-13T13:46:33.660Z,29.70
2018-07-13T13:49:02.544Z,29.70
2018-07-13T13:51:31.436Z,29.40
2018-07-13T13:54:00.324Z,29.20
2018-07-13T13:56:29.291Z,28.70
2018-07-13T13:58:58.211Z,28.30
2018-07-13T14:01:27.126Z,28.20
2018-07-13T14:06:25.033Z,28.20
2018-07-13T14:08:53.961Z,28.20
2018-07-13T14:11:22.900Z,27.90
2018-07-13T14:13:51.828Z,27.80
2018-07-13T14:16:20.757Z,27.80
2018-07-13T14:18:49.679Z,27.70
2018-07-13T14:23:47.448Z,27.70
2018-07-13T14:26:16.344Z,27.80
2018-07-13T14:28:45.293Z,27.70
2018-07-13T14:31:14.211Z,27.50
2018-07-13T14:33:43.090Z,27.40
2018-07-13T14:36:11.972Z,27.50
2018-07-13T14:38:40.952Z,27.50
2018-07-13T14:41:09.879Z,27.50
2018-07-13T14:43:39.251Z,27.30
2018-07-13T14:46:08.454Z,27.10
2018-07-13T14:48:38.228Z,27.00
2018-07-13T14:51:07.131Z,27.00
2018-07-13T14:53:36.170Z,27.00
2018-07-13T14:56:05.237Z,27.00
2018-07-13T14:58:34.195Z,27.10
2018-07-13T15:01:03.120Z,27.20
2018-07-13T15:03:32.028Z,27.10
2018-07-13T15:06:00.994Z,27.10
2018-07-13T15:08:30.203Z,27.30
2018-07-13T15:10:59.204Z,27.40
2018-07-13T15:13:28.149Z,27.40
2018-07-13T15:15:57.011Z,27.40
2018-07-13T15:18:25.868Z,27.60
2018-07-13T15:20:54.823Z,27.70
2018-07-13T15:23:23.715Z,27.90
2018-07-13T15:25:52.640Z,27.70
2018-07-13T15:28:21.524Z,27.80
2018-07-13T15:30:50.384Z,27.90
2018-07-13T15:33:19.243Z,27.90
2018-07-13T15:35:48.128Z,28.00
2018-07-13T15:38:16.975Z,28.10
2018-07-13T15:40:46.134Z,28.30
2018-07-13T15:43:15.304Z,28.20
2018-07-13T15:45:44.402Z,28.00
2018-07-13T15:48:14.639Z,27.80
2018-07-13T15:50:43.872Z,27.80
2018-07-13T15:53:12.943Z,27.80
2018-07-13T15:55:47.556Z,27.80
2018-07-13T15:58:16.483Z,27.90
2018-07-13T16:00:45.325Z,27.50
2018-07-13T16:03:14.169Z,27.20
2018-07-13T16:05:43.082Z,27.20
2018-07-13T16:08:11.939Z,27.30
2018-07-13T16:10:40.885Z,27.30
2018-07-13T16:13:09.978Z,27.40
2018-07-13T16:15:38.880Z,27.40
2018-07-13T16:18:07.771Z,27.40
2018-07-13T16:20:36.697Z,27.40
2018-07-13T16:23:05.628Z,27.50
2018-07-13T16:25:34.524Z,27.30
2018-07-13T16:28:03.410Z,27.20
2018-07-13T16:30:32.299Z,27.20
2018-07-13T16:33:01.103Z,27.10
2018-07-13T16:35:30.004Z,27.00
2018-07-13T16:37:58.827Z,27.00
2018-07-13T16:42:56.445Z,27.00
2018-07-13T16:45:25.360Z,27.00
2018-07-13T16:47:54.387Z,27.10
2018-07-13T16:50:23.393Z,27.00
2018-07-13T16:52:52.508Z,26.90
2018-07-13T16:55:21.426Z,26.80
2018-07-13T16:57:50.297Z,26.80
2018-07-13T17:00:19.203Z,26.80
2018-07-13T17:02:48.049Z,26.80
2018-07-13T17:05:16.935Z,26.70
2018-07-13T17:07:45.812Z,26.60
2018-07-13T17:10:14.701Z,26.60
2018-07-13T17:12:43.644Z,26.50
2018-07-13T17:15:12.468Z,26.60
2018-07-13T17:17:41.383Z,26.60
2018-07-13T17:22:39.063Z,26.70
2018-07-13T17:25:07.955Z,26.70
2018-07-13T17:27:37.096Z,26.60
2018-07-13T17:30:07.895Z,26.60
2018-07-13T17:32:36.776Z,26.60
2018-07-13T17:35:05.681Z,26.70
2018-07-13T17:37:34.556Z,26.60
2018-07-13T17:40:03.552Z,26.60
2018-07-13T17:42:32.453Z,26.60
2018-07-13T17:45:01.305Z,26.70
2018-07-13T17:47:30.164Z,26.70
2018-07-13T17:49:59.021Z,26.60
2018-07-13T17:52:27.941Z,26.50
2018-07-13T17:54:56.820Z,26.50
2018-07-13T17:57:25.753Z,26.40
2018-07-13T17:59:54.648Z,26.30
2018-07-13T18:02:23.504Z,26.20
2018-07-13T18:04:52.370Z,26.20
2018-07-13T18:07:21.276Z,26.20
2018-07-13T18:09:50.138Z,26.10
2018-07-13T18:12:18.988Z,26.00
2018-07-13T18:14:47.873Z,26.00
2018-07-13T18:17:16.810Z,26.00
2018-07-13T18:19:45.695Z,25.90
2018-07-13T18:22:14.596Z,25.80
2018-07-13T18:24:43.491Z,25.80
2018-07-13T18:29:41.120Z,25.70
2018-07-13T18:32:10.018Z,25.70
2018-07-13T18:34:39.136Z,25.60
2018-07-13T18:37:08.073Z,25.50
2018-07-13T18:39:36.903Z,25.50
2018-07-13T18:42:05.787Z,25.40
2018-07-13T18:44:34.652Z,25.30
2018-07-13T18:47:03.788Z,25.20
2018-07-13T18:49:32.629Z,25.10
2018-07-13T18:52:01.504Z,25.00
2018-07-13T18:54:30.490Z,24.90
2018-07-13T18:56:59.327Z,24.80
2018-07-13T18:59:28.212Z,24.90
2018-07-13T19:01:57.112Z,24.80
2018-07-13T19:04:26.107Z,24.80
2018-07-13T19:06:54.982Z,24.80
2018-07-13T19:09:23.848Z,24.70
2018-07-13T19:11:52.744Z,24.70
2018-07-13T19:14:21.608Z,24.60
2018-07-13T19:16:50.487Z,24.60
2018-07-13T19:19:19.363Z,24.50
2018-07-13T19:21:48.240Z,24.40
2018-07-13T19:24:17.213Z,24.40
2018-07-13T19:26:46.116Z,24.20
2018-07-13T19:29:15.126Z,24.10
2018-07-13T19:31:44.009Z,24.00
2018-07-13T19:34:12.886Z,23.80
2018-07-13T19:36:41.815Z,23.80
2018-07-13T19:41:39.532Z,23.70
2018-07-13T19:44:08.421Z,23.70
2018-07-13T19:46:37.291Z,23.60
2018-07-13T19:49:06.176Z,23.50
2018-07-13T19:51:35.085Z,23.40
2018-07-13T19:54:03.985Z,23.40
2018-07-13T19:56:32.868Z,23.30
2018-07-13T19:59:01.721Z,23.20
2018-07-13T20:01:30.610Z,23.10
2018-07-13T20:03:59.455Z,23.10
2018-07-13T20:06:28.392Z,23.00
2018-07-13T20:08:57.285Z,23.00
2018-07-13T20:11:26.131Z,22.90
2018-07-13T20:13:55.007Z,22.90
2018-07-13T20:16:23.887Z,22.90
2018-07-13T20:18:52.792Z,22.80
2018-07-13T20:21:21.672Z,22.80
2018-07-13T20:23:50.554Z,22.70
2018-07-13T20:26:19.474Z,22.70
2018-07-13T20:28:48.323Z,22.60
2018-07-13T20:31:17.203Z,22.60
2018-07-13T20:33:46.110Z,22.50
2018-07-13T20:36:15.060Z,22.50
2018-07-13T20:38:44.143Z,22.50
2018-07-13T20:41:13.067Z,22.40
2018-07-13T20:43:41.957Z,22.40
2018-07-13T20:46:10.836Z,22.30
2018-07-13T20:48:39.725Z,22.30
2018-07-13T20:51:08.624Z,22.30
2018-07-13T20:53:37.527Z,22.20
2018-07-13T21:01:03.958Z,22.10
2018-07-13T21:03:32.820Z,22.10
2018-07-13T21:06:01.736Z,22.00
2018-07-13T21:08:30.669Z,22.00
2018-07-13T21:10:59.545Z,21.90
2018-07-13T21:13:28.441Z,21.90
2018-07-13T21:15:58.424Z,21.80
2018-07-13T21:20:57.149Z,21.80
2018-07-13T21:23:25.923Z,21.80
2018-07-13T21:25:54.784Z,21.70
2018-07-13T21:28:23.647Z,21.70
2018-07-13T21:30:52.536Z,21.60
2018-07-13T21:35:50.149Z,21.50
2018-07-13T21:38:18.999Z,21.50
2018-07-13T21:40:47.872Z,21.40
2018-07-13T21:43:16.795Z,21.30
2018-07-13T21:45:45.660Z,21.30
2018-07-13T21:48:14.559Z,21.30
2018-07-13T21:50:43.436Z,21.30
2018-07-13T21:55:41.126Z,21.30
2018-07-13T21:58:10.000Z,21.20
2018-07-13T22:00:39.554Z,21.10
2018-07-13T22:03:08.539Z,21.20
2018-07-13T22:08:06.509Z,21.10
2018-07-13T22:13:04.209Z,21.10
2018-07-13T22:25:02.236Z,20.80
2018-07-13T22:27:31.087Z,20.80
2018-07-13T22:29:59.963Z,20.70
2018-07-13T22:32:28.867Z,20.70
2018-07-13T22:34:57.728Z,20.70
2018-07-13T22:37:26.559Z,20.70
2018-07-13T22:39:55.429Z,20.70
2018-07-13T22:42:24.295Z,20.60
2018-07-13T22:44:53.216Z,20.60
2018-07-13T22:47:22.107Z,20.50
2018-07-13T22:49:50.944Z,20.60
2018-07-13T22:52:19.811Z,20.50
2018-07-13T22:54:48.707Z,20.50
2018-07-13T22:59:46.357Z,20.50
2018-07-13T23:02:15.239Z,20.40
2018-07-13T23:04:44.155Z,20.40
2018-07-13T23:07:13.029Z,20.40
2018-07-13T23:09:41.940Z,20.30
2018-07-13T23:12:10.820Z,20.30
2018-07-13T23:17:08.468Z,20.30
2018-07-13T23:19:37.328Z,20.30
2018-07-13T23:22:06.280Z,20.30
2018-07-13T23:24:35.130Z,20.20
2018-07-13T23:27:03.987Z,20.30
2018-07-13T23:29:32.839Z,20.30
2018-07-13T23:32:01.681Z,20.20
2018-07-13T23:34:30.573Z,20.20
2018-07-13T23:36:59.411Z,20.10
2018-07-13T23:39:28.299Z,20.10
2018-07-13T23:41:57.148Z,20.10
2018-07-13T23:44:26.008Z,20.10
2018-07-13T23:46:54.897Z,20.10
2018-07-13T23:49:23.756Z,20.10
2018-07-13T23:51:52.720Z,20.00
2018-07-13T23:54:21.578Z,20.00
2018-07-13T23:56:50.464Z,20.00
2018-07-13T23:59:19.456Z,20.00
